sensor_id;sensor_type;location;lat;lon;timestamp;pressure;altitude;pressure_sealevel;temperature
82778;BMP280;72510;45.128;20.734;2024-01-25T00:09:02;101002.94;;;4.35
82778;BMP280;72510;45.128;20.734;2024-01-25T00:19:05;101015.09;;;4.26
82778;BMP280;72510;45.128;20.734;2024-01-25T00:29:07;101034.59;;;4.32
82778;BMP280;72510;45.128;20.734;2024-01-25T00:39:08;101040.50;;;4.43
82778;BMP280;72510;45.128;20.734;2024-01-25T00:49:10;101041.97;;;4.48
82778;BMP280;72510;45.128;20.734;2024-01-25T00:59:11;101047.75;;;4.39
82778;BMP280;72510;45.128;20.734;2024-01-25T01:09:13;101044.41;;;4.31
82778;BMP280;72510;45.128;20.734;2024-01-25T01:19:14;101048.94;;;4.31
82778;BMP280;72510;45.128;20.734;2024-01-25T01:29:16;101050.97;;;4.16
82778;BMP280;72510;45.128;20.734;2024-01-25T01:39:18;101036.50;;;3.97
82778;BMP280;72510;45.128;20.734;2024-01-25T01:49:19;101010.59;;;3.88
82778;BMP280;72510;45.128;20.734;2024-01-25T01:59:21;101007.63;;;3.83
82778;BMP280;72510;45.128;20.734;2024-01-25T02:09:22;100991.81;;;3.83
82778;BMP280;72510;45.128;20.734;2024-01-25T02:19:23;100985.41;;;3.84
82778;BMP280;72510;45.128;20.734;2024-01-25T02:29:24;100998.47;;;3.98
82778;BMP280;72510;45.128;20.734;2024-01-25T02:39:26;101012.44;;;3.91
82778;BMP280;72510;45.128;20.734;2024-01-25T02:49:27;101018.88;;;3.87
82778;BMP280;72510;45.128;20.734;2024-01-25T02:59:28;101021.31;;;3.67
82778;BMP280;72510;45.128;20.734;2024-01-25T03:09:30;101015.75;;;3.57
82778;BMP280;72510;45.128;20.734;2024-01-25T03:19:32;101008.97;;;3.56
82778;BMP280;72510;45.128;20.734;2024-01-25T03:29:34;101030.47;;;3.51
82778;BMP280;72510;45.128;20.734;2024-01-25T03:39:38;101025.25;;;3.48
82778;BMP280;72510;45.128;20.734;2024-01-25T03:49:39;101028.53;;;3.59
82778;BMP280;72510;45.128;20.734;2024-01-25T03:59:40;101019.41;;;3.71
82778;BMP280;72510;45.128;20.734;2024-01-25T04:09:41;101013.97;;;3.89
82778;BMP280;72510;45.128;20.734;2024-01-25T04:19:42;101020.31;;;3.95
82778;BMP280;72510;45.128;20.734;2024-01-25T04:29:44;101015.91;;;3.85
82778;BMP280;72510;45.128;20.734;2024-01-25T04:39:45;101009.25;;;3.73
82778;BMP280;72510;45.128;20.734;2024-01-25T04:49:47;101031.50;;;3.65
82778;BMP280;72510;45.128;20.734;2024-01-25T04:59:48;101020.56;;;3.66
82778;BMP280;72510;45.128;20.734;2024-01-25T05:09:49;101032.94;;;3.73
82778;BMP280;72510;45.128;20.734;2024-01-25T05:19:50;101033.69;;;3.73
82778;BMP280;72510;45.128;20.734;2024-01-25T05:29:51;101026.94;;;3.69
82778;BMP280;72510;45.128;20.734;2024-01-25T05:39:53;101017.50;;;3.75
82778;BMP280;72510;45.128;20.734;2024-01-25T05:49:54;101024.53;;;3.85
82778;BMP280;72510;45.128;20.734;2024-01-25T05:59:58;101034.78;;;4.17
82778;BMP280;72510;45.128;20.734;2024-01-25T06:09:59;101043.78;;;4.54
82778;BMP280;72510;45.128;20.734;2024-01-25T06:20:01;101047.06;;;4.62
82778;BMP280;72510;45.128;20.734;2024-01-25T06:30:02;101041.69;;;4.73
82778;BMP280;72510;45.128;20.734;2024-01-25T06:40:04;101042.47;;;4.70
82778;BMP280;72510;45.128;20.734;2024-01-25T06:50:07;101043.19;;;4.70
82778;BMP280;72510;45.128;20.734;2024-01-25T07:00:08;101041.56;;;4.80
82778;BMP280;72510;45.128;20.734;2024-01-25T07:10:12;101037.59;;;4.95
82778;BMP280;72510;45.128;20.734;2024-01-25T07:20:13;101037.66;;;5.15
82778;BMP280;72510;45.128;20.734;2024-01-25T07:30:14;101041.69;;;5.24
82778;BMP280;72510;45.128;20.734;2024-01-25T07:40:16;101028.63;;;5.40
82778;BMP280;72510;45.128;20.734;2024-01-25T07:50:17;101032.25;;;5.70
82778;BMP280;72510;45.128;20.734;2024-01-25T08:00:28;101035.56;;;5.98
82778;BMP280;72510;45.128;20.734;2024-01-25T08:10:29;101041.72;;;6.11
82778;BMP280;72510;45.128;20.734;2024-01-25T08:20:31;101063.75;;;6.44
82778;BMP280;72510;45.128;20.734;2024-01-25T08:30:33;101067.66;;;6.76
82778;BMP280;72510;45.128;20.734;2024-01-25T08:40:35;101072.22;;;7.08
82778;BMP280;72510;45.128;20.734;2024-01-25T08:50:41;101062.78;;;7.40
82778;BMP280;72510;45.128;20.734;2024-01-25T09:00:42;101067.88;;;7.64
82778;BMP280;72510;45.128;20.734;2024-01-25T09:10:45;101078.06;;;7.78
82778;BMP280;72510;45.128;20.734;2024-01-25T09:20:46;101077.38;;;8.32
82778;BMP280;72510;45.128;20.734;2024-01-25T09:30:52;101066.34;;;8.72
82778;BMP280;72510;45.128;20.734;2024-01-25T09:40:56;101067.81;;;9.12
82778;BMP280;72510;45.128;20.734;2024-01-25T09:50:58;101054.81;;;9.71
82778;BMP280;72510;45.128;20.734;2024-01-25T10:01:03;101057.41;;;9.62
82778;BMP280;72510;45.128;20.734;2024-01-25T10:11:06;101042.53;;;9.95
82778;BMP280;72510;45.128;20.734;2024-01-25T10:21:13;101028.16;;;10.65
82778;BMP280;72510;45.128;20.734;2024-01-25T10:31:25;101034.50;;;10.67
82778;BMP280;72510;45.128;20.734;2024-01-25T10:41:26;101020.31;;;11.26
82778;BMP280;72510;45.128;20.734;2024-01-25T10:51:29;101024.00;;;11.65
82778;BMP280;72510;45.128;20.734;2024-01-25T11:01:33;101012.03;;;11.85
82778;BMP280;72510;45.128;20.734;2024-01-25T11:11:36;101005.03;;;11.96
82778;BMP280;72510;45.128;20.734;2024-01-25T11:21:48;101002.16;;;12.81
82778;BMP280;72510;45.128;20.734;2024-01-25T11:31:50;100978.00;;;13.70
82778;BMP280;72510;45.128;20.734;2024-01-25T11:41:52;100964.75;;;14.64
82778;BMP280;72510;45.128;20.734;2024-01-25T11:51:53;100976.13;;;15.43
82778;BMP280;72510;45.128;20.734;2024-01-25T12:01:56;100976.91;;;16.03
82778;BMP280;72510;45.128;20.734;2024-01-25T12:12:02;100960.59;;;16.35
82778;BMP280;72510;45.128;20.734;2024-01-25T12:22:04;100956.00;;;16.91
82778;BMP280;72510;45.128;20.734;2024-01-25T12:32:09;100958.22;;;15.71
82778;BMP280;72510;45.128;20.734;2024-01-25T12:42:10;100960.00;;;15.86
82778;BMP280;72510;45.128;20.734;2024-01-25T12:52:14;100962.09;;;15.70
82778;BMP280;72510;45.128;20.734;2024-01-25T13:02:18;100958.59;;;13.76
82778;BMP280;72510;45.128;20.734;2024-01-25T13:12:20;100943.38;;;14.23
82778;BMP280;72510;45.128;20.734;2024-01-25T13:22:21;100940.41;;;15.31
82778;BMP280;72510;45.128;20.734;2024-01-25T13:32:26;100930.00;;;16.04
82778;BMP280;72510;45.128;20.734;2024-01-25T13:42:27;100921.97;;;16.21
82778;BMP280;72510;45.128;20.734;2024-01-25T13:52:29;100922.31;;;15.74
82778;BMP280;72510;45.128;20.734;2024-01-25T14:02:31;100912.19;;;15.47
82778;BMP280;72510;45.128;20.734;2024-01-25T14:12:34;100912.44;;;15.43
82778;BMP280;72510;45.128;20.734;2024-01-25T14:22:36;100916.09;;;15.46
82778;BMP280;72510;45.128;20.734;2024-01-25T14:32:37;100921.91;;;15.01
82778;BMP280;72510;45.128;20.734;2024-01-25T14:42:39;100914.81;;;14.40
82778;BMP280;72510;45.128;20.734;2024-01-25T14:52:43;100907.69;;;12.46
82778;BMP280;72510;45.128;20.734;2024-01-25T15:02:48;100931.94;;;10.81
82778;BMP280;72510;45.128;20.734;2024-01-25T15:12:50;100941.94;;;10.12
82778;BMP280;72510;45.128;20.734;2024-01-25T15:22:54;100939.00;;;9.48
82778;BMP280;72510;45.128;20.734;2024-01-25T15:33:00;100953.34;;;9.06
82778;BMP280;72510;45.128;20.734;2024-01-25T15:43:04;100969.19;;;8.97
82778;BMP280;72510;45.128;20.734;2024-01-25T15:53:05;100986.69;;;8.72
82778;BMP280;72510;45.128;20.734;2024-01-25T16:03:06;100988.41;;;8.53
82778;BMP280;72510;45.128;20.734;2024-01-25T16:13:12;101002.44;;;8.67
82778;BMP280;72510;45.128;20.734;2024-01-25T16:23:13;101013.56;;;8.74
82778;BMP280;72510;45.128;20.734;2024-01-25T16:33:14;101037.69;;;8.67
82778;BMP280;72510;45.128;20.734;2024-01-25T16:43:15;101043.00;;;8.67
82778;BMP280;72510;45.128;20.734;2024-01-25T16:53:17;101055.88;;;8.69
82778;BMP280;72510;45.128;20.734;2024-01-25T17:03:18;101074.13;;;8.67
82778;BMP280;72510;45.128;20.734;2024-01-25T17:13:19;101076.66;;;8.58
82778;BMP280;72510;45.128;20.734;2024-01-25T17:23:22;101083.13;;;8.44
82778;BMP280;72510;45.128;20.734;2024-01-25T17:33:23;101087.78;;;8.27
82778;BMP280;72510;45.128;20.734;2024-01-25T17:43:25;101101.66;;;8.31
82778;BMP280;72510;45.128;20.734;2024-01-25T17:53:26;101104.25;;;8.34
82778;BMP280;72510;45.128;20.734;2024-01-25T18:03:27;101094.19;;;8.29
82778;BMP280;72510;45.128;20.734;2024-01-25T18:13:32;101098.09;;;8.38
82778;BMP280;72510;45.128;20.734;2024-01-25T18:23:34;101108.03;;;8.21
82778;BMP280;72510;45.128;20.734;2024-01-25T18:33:36;101092.59;;;8.03
82778;BMP280;72510;45.128;20.734;2024-01-25T18:43:41;101094.03;;;8.07
82778;BMP280;72510;45.128;20.734;2024-01-25T18:53:44;101088.00;;;8.20
82778;BMP280;72510;45.128;20.734;2024-01-25T19:03:45;101093.31;;;8.20
82778;BMP280;72510;45.128;20.734;2024-01-25T19:13:46;101090.75;;;8.16
82778;BMP280;72510;45.128;20.734;2024-01-25T19:23:48;101074.44;;;8.01
82778;BMP280;72510;45.128;20.734;2024-01-25T19:33:49;101089.63;;;8.01
82778;BMP280;72510;45.128;20.734;2024-01-25T19:43:50;101092.22;;;8.17
82778;BMP280;72510;45.128;20.734;2024-01-25T19:53:51;101091.81;;;8.19
82778;BMP280;72510;45.128;20.734;2024-01-25T20:03:53;101091.03;;;8.05
82778;BMP280;72510;45.128;20.734;2024-01-25T20:13:55;101095.53;;;7.63
82778;BMP280;72510;45.128;20.734;2024-01-25T20:23:56;101084.47;;;7.19
82778;BMP280;72510;45.128;20.734;2024-01-25T20:33:59;101085.44;;;6.92
82778;BMP280;72510;45.128;20.734;2024-01-25T20:44:00;101094.44;;;6.78
82778;BMP280;72510;45.128;20.734;2024-01-25T20:54:04;101093.13;;;6.50
82778;BMP280;72510;45.128;20.734;2024-01-25T21:04:06;101085.53;;;6.12
82778;BMP280;72510;45.128;20.734;2024-01-25T21:14:07;101098.09;;;5.84
82778;BMP280;72510;45.128;20.734;2024-01-25T21:24:08;101090.19;;;5.61
82778;BMP280;72510;45.128;20.734;2024-01-25T21:34:10;101090.81;;;5.45
82778;BMP280;72510;45.128;20.734;2024-01-25T21:44:12;101102.25;;;5.38
82778;BMP280;72510;45.128;20.734;2024-01-25T21:54:13;101094.31;;;5.38
82778;BMP280;72510;45.128;20.734;2024-01-25T22:04:15;101089.19;;;5.27
82778;BMP280;72510;45.128;20.734;2024-01-25T22:14:16;101100.75;;;5.10
82778;BMP280;72510;45.128;20.734;2024-01-25T22:24:17;101096.75;;;4.98
82778;BMP280;72510;45.128;20.734;2024-01-25T22:34:19;101096.72;;;4.71
82778;BMP280;72510;45.128;20.734;2024-01-25T22:44:20;101087.94;;;4.47
82778;BMP280;72510;45.128;20.734;2024-01-25T22:54:21;101090.06;;;4.21
82778;BMP280;72510;45.128;20.734;2024-01-25T23:04:27;101093.41;;;4.29
82778;BMP280;72510;45.128;20.734;2024-01-25T23:14:28;101090.34;;;4.68
82778;BMP280;72510;45.128;20.734;2024-01-25T23:24:30;101102.22;;;4.84
82778;BMP280;72510;45.128;20.734;2024-01-25T23:34:31;101111.81;;;4.36
82778;BMP280;72510;45.128;20.734;2024-01-25T23:44:36;101122.31;;;3.98
82778;BMP280;72510;45.128;20.734;2024-01-25T23:54:37;101120.44;;;3.98
